createdAt,value
2022-08-14T00:02:27.420Z,7.88
2022-08-14T00:04:55.963Z,7.88
2022-08-14T00:07:24.045Z,8.20
2022-08-14T00:10:01.375Z,8.20
2022-08-14T00:12:53.417Z,8.13
2022-08-14T00:15:29.844Z,7.68
2022-08-14T00:18:06.714Z,8.38
2022-08-14T00:20:42.989Z,7.35
2022-08-14T00:23:16.499Z,8.32
2022-08-14T00:25:58.817Z,8.88
2022-08-14T00:28:35.877Z,9.55
2022-08-14T00:31:07.805Z,9.38
2022-08-14T00:33:50.616Z,9.07
2022-08-14T00:36:39.206Z,9.00
2022-08-14T00:39:12.574Z,9.57
2022-08-14T00:41:43.330Z,8.57
2022-08-14T00:44:11.561Z,8.18
2022-08-14T00:46:41.075Z,8.35
2022-08-14T00:49:11.394Z,7.95
2022-08-14T00:51:44.195Z,8.50
2022-08-14T00:54:21.043Z,8.10
2022-08-14T00:56:55.520Z,8.00
2022-08-14T00:59:25.546Z,8.20
2022-08-14T01:01:57.180Z,7.95
2022-08-14T01:04:37.690Z,8.27
2022-08-14T01:07:20.579Z,7.60
2022-08-14T01:09:50.772Z,8.90
2022-08-14T01:12:26.847Z,8.43
2022-08-14T01:14:58.087Z,8.20
2022-08-14T01:17:49.226Z,8.90
2022-08-14T01:20:39.810Z,8.68
2022-08-14T01:23:16.337Z,9.15
2022-08-14T01:25:48.004Z,8.45
2022-08-14T01:28:46.627Z,8.20
2022-08-14T01:31:06.737Z,7.85
2022-08-14T01:34:00.237Z,8.48
2022-08-14T01:36:25.697Z,8.52
2022-08-14T01:38:58.021Z,7.95
2022-08-14T01:41:30.187Z,7.90
2022-08-14T01:44:02.195Z,8.43
2022-08-14T01:46:33.543Z,8.38
2022-08-14T01:49:08.744Z,8.07
2022-08-14T01:51:39.364Z,8.40
2022-08-14T01:54:14.732Z,8.70
2022-08-14T01:56:44.821Z,8.57
2022-08-14T01:59:21.854Z,8.05
2022-08-14T02:01:58.000Z,8.48
2022-08-14T02:04:54.954Z,8.68
2022-08-14T02:07:34.330Z,8.75
2022-08-14T02:10:13.011Z,8.48
2022-08-14T02:12:44.022Z,9.00
2022-08-14T02:15:12.779Z,8.98
2022-08-14T02:17:43.816Z,8.50
2022-08-14T02:20:14.044Z,8.63
2022-08-14T02:22:47.597Z,8.60
2022-08-14T02:25:17.743Z,8.73
2022-08-14T02:28:25.728Z,8.55
2022-08-14T02:30:34.836Z,8.88
2022-08-14T02:33:07.608Z,8.70
2022-08-14T02:35:41.580Z,9.10
2022-08-14T02:38:29.946Z,8.32
2022-08-14T02:41:00.524Z,8.50
2022-08-14T02:43:37.418Z,9.13
2022-08-14T02:46:20.421Z,8.38
2022-08-14T02:49:04.443Z,8.70
2022-08-14T02:51:34.681Z,8.55
2022-08-14T02:54:05.485Z,9.02
2022-08-14T02:57:15.932Z,8.85
2022-08-14T02:59:29.569Z,8.55
2022-08-14T03:02:03.057Z,9.15
2022-08-14T03:04:31.493Z,9.32
2022-08-14T03:07:07.408Z,8.95
2022-08-14T03:10:26.628Z,9.15
2022-08-14T03:12:31.402Z,8.93
2022-08-14T03:15:03.712Z,8.88
2022-08-14T03:17:56.880Z,8.93
2022-08-14T03:20:23.332Z,9.10
2022-08-14T03:22:52.589Z,8.93
2022-08-14T03:25:22.479Z,9.10
2022-08-14T03:27:58.428Z,9.23
2022-08-14T03:30:39.687Z,9.15
2022-08-14T03:33:11.184Z,9.32
2022-08-14T03:36:05.090Z,8.98
2022-08-14T03:39:14.626Z,8.98
2022-08-14T03:41:23.134Z,9.40
2022-08-14T03:44:01.373Z,9.30
2022-08-14T03:46:54.400Z,8.68
2022-08-14T03:49:28.830Z,8.88
2022-08-14T03:52:00.877Z,9.18
2022-08-14T03:54:29.889Z,9.18
2022-08-14T03:57:02.329Z,9.68
2022-08-14T03:59:32.914Z,8.82
2022-08-14T04:02:02.198Z,9.30
2022-08-14T04:04:33.411Z,8.82
2022-08-14T04:07:01.856Z,9.68
2022-08-14T04:09:30.375Z,9.20
2022-08-14T04:11:59.996Z,8.88
2022-08-14T04:14:30.940Z,8.50
2022-08-14T04:17:10.227Z,9.20
2022-08-14T04:19:40.525Z,8.88
2022-08-14T04:22:09.472Z,8.50
2022-08-14T04:24:39.754Z,9.38
2022-08-14T04:27:09.986Z,8.82
2022-08-14T04:29:39.658Z,8.25
2022-08-14T04:32:58.520Z,9.57
2022-08-14T04:34:58.556Z,8.45
2022-08-14T04:37:45.237Z,8.05
2022-08-14T04:40:32.383Z,8.02
2022-08-14T04:43:18.202Z,8.88
2022-08-14T04:45:51.509Z,8.23
2022-08-14T04:48:38.855Z,8.57
2022-08-14T04:51:11.260Z,8.40
2022-08-14T04:53:43.968Z,8.05
2022-08-14T04:56:33.884Z,7.97
2022-08-14T04:59:09.971Z,8.30
2022-08-14T05:01:44.733Z,8.02
2022-08-14T05:04:20.259Z,7.78
2022-08-14T05:09:18.000Z,8.23
2022-08-14T05:11:47.431Z,7.47
2022-08-14T05:14:34.597Z,7.32
2022-08-14T05:17:03.670Z,7.13
2022-08-14T05:19:33.136Z,7.68
2022-08-14T05:22:17.053Z,7.15
2022-08-14T05:24:48.616Z,7.13
2022-08-14T05:27:22.678Z,7.03
2022-08-14T05:29:56.721Z,7.28
2022-08-14T05:32:27.407Z,6.47
2022-08-14T05:34:59.386Z,6.88
2022-08-14T05:37:30.483Z,6.50
2022-08-14T05:40:00.905Z,6.68
2022-08-14T05:42:34.351Z,5.80
2022-08-14T05:45:04.614Z,7.22
2022-08-14T05:47:39.123Z,6.78
2022-08-14T05:50:18.411Z,6.05
2022-08-14T05:52:48.554Z,6.50
2022-08-14T05:55:22.616Z,6.10
2022-08-14T05:57:59.385Z,6.32
2022-08-14T06:00:38.543Z,6.07
2022-08-14T06:03:09.600Z,6.00
2022-08-14T06:05:39.940Z,5.88
2022-08-14T06:08:30.982Z,5.68
2022-08-14T06:11:06.177Z,5.60
2022-08-14T06:13:41.169Z,5.55
2022-08-14T06:16:15.607Z,5.65
2022-08-14T06:18:48.611Z,5.82
2022-08-14T06:21:23.053Z,5.50
2022-08-14T06:23:51.671Z,5.47
2022-08-14T06:26:20.482Z,5.60
2022-08-14T06:28:52.082Z,5.45
2022-08-14T06:31:21.112Z,5.43
2022-08-14T06:35:11.406Z,5.57
2022-08-14T06:36:39.848Z,5.45
2022-08-14T06:39:10.381Z,5.18
2022-08-14T06:41:58.452Z,5.20
2022-08-14T06:44:30.532Z,5.50
2022-08-14T06:47:02.990Z,5.63
2022-08-14T06:49:43.500Z,6.05
2022-08-14T06:52:16.129Z,5.40
2022-08-14T06:57:13.788Z,6.03
2022-08-14T06:59:42.765Z,5.50
2022-08-14T07:02:29.306Z,5.55
2022-08-14T07:05:16.958Z,5.97
2022-08-14T07:07:51.961Z,5.65
2022-08-14T07:10:22.303Z,5.80
2022-08-14T07:13:02.164Z,5.93
2022-08-14T07:15:34.189Z,5.95
2022-08-14T07:18:09.308Z,5.70
2022-08-14T07:20:38.519Z,5.90
2022-08-14T07:23:19.934Z,6.07
2022-08-14T07:25:51.659Z,6.18
2022-08-14T07:28:23.596Z,6.35
2022-08-14T07:30:52.666Z,6.30
2022-08-14T07:33:24.860Z,6.43
2022-08-14T07:36:00.188Z,6.10
2022-08-14T07:38:35.781Z,6.88
2022-08-14T07:41:11.871Z,6.82
2022-08-14T07:43:52.922Z,6.25
2022-08-14T07:46:28.408Z,6.40
2022-08-14T07:48:58.651Z,6.38
2022-08-14T07:51:36.873Z,6.20
2022-08-14T07:54:11.374Z,6.35
2022-08-14T07:56:46.592Z,6.53
2022-08-14T07:59:18.554Z,6.95
2022-08-14T08:01:51.356Z,6.38
2022-08-14T08:04:27.249Z,6.50
2022-08-14T08:06:55.912Z,6.57
2022-08-14T08:09:31.965Z,6.35
2022-08-14T08:12:05.015Z,6.32
2022-08-14T08:14:56.873Z,6.57
2022-08-14T08:17:24.502Z,6.35
2022-08-14T08:19:53.667Z,6.88
2022-08-14T08:22:23.801Z,7.00
2022-08-14T08:24:57.996Z,6.78
2022-08-14T08:27:26.166Z,6.45
2022-08-14T08:30:10.010Z,7.15
2022-08-14T08:32:41.616Z,7.13
2022-08-14T08:35:20.633Z,6.93
2022-08-14T08:37:53.722Z,6.10
2022-08-14T08:40:36.226Z,6.47
2022-08-14T08:43:20.522Z,6.65
2022-08-14T08:45:56.539Z,6.95
2022-08-14T08:48:31.478Z,6.72
2022-08-14T08:51:05.250Z,6.78
2022-08-14T08:53:35.509Z,6.80
2022-08-14T08:56:05.465Z,6.70
2022-08-14T08:58:33.852Z,6.55
2022-08-14T09:01:02.081Z,6.32
2022-08-14T09:03:32.257Z,6.45
2022-08-14T09:06:04.016Z,6.68
2022-08-14T09:08:51.790Z,6.80
2022-08-14T09:11:23.309Z,7.22
2022-08-14T09:13:53.771Z,6.40
2022-08-14T09:16:24.881Z,6.65
2022-08-14T09:18:53.864Z,6.78
2022-08-14T09:21:30.907Z,6.72
2022-08-14T09:24:28.949Z,6.90
2022-08-14T09:26:50.813Z,6.85
2022-08-14T09:29:20.126Z,6.57
2022-08-14T09:31:57.265Z,6.57
2022-08-14T09:34:58.025Z,6.97
2022-08-14T09:37:35.851Z,7.07
2022-08-14T09:40:10.120Z,6.32
2022-08-14T09:42:58.401Z,6.40
2022-08-14T09:45:39.964Z,7.20
2022-08-14T09:48:27.445Z,6.82
2022-08-14T09:54:18.811Z,6.30
2022-08-14T09:56:31.779Z,7.25
2022-08-14T09:59:15.259Z,6.65
2022-08-14T10:01:45.975Z,7.07
2022-08-14T10:04:35.610Z,6.95
2022-08-14T10:07:08.125Z,6.60
2022-08-14T10:09:59.658Z,7.00
2022-08-14T10:12:45.378Z,6.35
2022-08-14T10:15:21.088Z,6.13
2022-08-14T10:17:50.195Z,5.70
2022-08-14T10:20:40.590Z,5.60
2022-08-14T10:23:16.200Z,5.68
2022-08-14T10:25:50.750Z,5.80
2022-08-14T10:28:39.646Z,5.50
2022-08-14T10:31:25.682Z,5.82
2022-08-14T10:34:04.169Z,5.90
2022-08-14T10:36:47.809Z,5.68
2022-08-14T10:39:18.912Z,5.78
2022-08-14T10:41:49.388Z,5.55
2022-08-14T10:44:29.818Z,5.47
2022-08-14T10:47:41.340Z,5.85
2022-08-14T10:49:59.682Z,6.13
2022-08-14T10:52:31.741Z,6.20
2022-08-14T10:55:13.978Z,5.97
2022-08-14T10:57:51.585Z,6.00
2022-08-14T11:00:30.354Z,6.15
2022-08-14T11:03:09.734Z,6.03
2022-08-14T11:05:43.278Z,5.90
2022-08-14T11:08:14.982Z,5.97
2022-08-14T11:10:46.517Z,5.60
2022-08-14T11:13:24.526Z,5.72
2022-08-14T11:15:53.260Z,5.93
2022-08-14T11:18:32.289Z,6.07
2022-08-14T11:21:06.793Z,5.20
2022-08-14T11:23:41.360Z,5.90
2022-08-14T11:26:14.048Z,5.82
2022-08-14T11:28:48.753Z,5.65
2022-08-14T11:31:21.941Z,6.03
2022-08-14T11:33:58.261Z,5.72
2022-08-14T11:36:56.934Z,6.05
2022-08-14T11:39:23.168Z,5.97
2022-08-14T11:42:07.642Z,5.60
2022-08-14T11:44:56.414Z,5.53
2022-08-14T11:47:35.333Z,5.35
2022-08-14T11:50:25.187Z,5.68
2022-08-14T11:53:04.768Z,4.85
2022-08-14T11:55:38.493Z,5.18
2022-08-14T11:58:10.510Z,5.03
2022-08-14T12:00:48.266Z,4.45
2022-08-14T12:03:19.803Z,4.97
2022-08-14T12:05:52.307Z,4.82
2022-08-14T12:08:24.690Z,4.32
2022-08-14T12:10:58.950Z,4.05
2022-08-14T12:13:32.292Z,4.05
2022-08-14T12:16:11.299Z,3.65
2022-08-14T12:18:50.865Z,3.80
2022-08-14T12:21:23.839Z,3.85
2022-08-14T12:24:03.314Z,4.43
2022-08-14T12:26:40.606Z,4.20
2022-08-14T12:29:13.037Z,4.38
2022-08-14T12:31:44.769Z,4.70
2022-08-14T12:34:20.550Z,4.32
2022-08-14T12:37:04.131Z,4.78
2022-08-14T12:39:39.589Z,4.43
2022-08-14T12:42:11.813Z,4.00
2022-08-14T12:45:03.960Z,4.00
2022-08-14T12:47:33.325Z,4.22
2022-08-14T12:50:02.393Z,4.40
2022-08-14T12:52:41.574Z,4.40
2022-08-14T12:55:32.330Z,4.22
2022-08-14T12:58:28.820Z,4.47
2022-08-14T13:01:16.343Z,4.60
2022-08-14T13:03:48.088Z,4.10
2022-08-14T13:06:24.470Z,4.43
2022-08-14T13:09:00.074Z,4.45
2022-08-14T13:11:40.923Z,4.80
2022-08-14T13:14:17.307Z,4.93
2022-08-14T13:16:50.410Z,4.40
2022-08-14T13:19:20.005Z,5.03
2022-08-14T13:21:58.917Z,4.93
2022-08-14T13:24:38.754Z,4.80
2022-08-14T13:27:09.778Z,4.47
2022-08-14T13:29:46.940Z,4.90
2022-08-14T13:32:16.338Z,4.70
2022-08-14T13:34:46.236Z,4.60
2022-08-14T13:37:17.328Z,4.68
2022-08-14T13:39:56.778Z,4.93
2022-08-14T13:42:30.186Z,4.60
2022-08-14T13:45:02.098Z,4.55
2022-08-14T13:47:33.241Z,4.85
2022-08-14T13:50:04.897Z,4.53
2022-08-14T13:52:51.627Z,4.53
2022-08-14T13:55:24.043Z,4.43
2022-08-14T13:58:03.958Z,4.90
2022-08-14T14:00:53.370Z,4.95
2022-08-14T14:03:31.782Z,5.20
2022-08-14T14:06:02.243Z,5.53
2022-08-14T14:08:43.515Z,5.15
2022-08-14T14:11:23.910Z,4.90
2022-08-14T14:13:53.449Z,5.10
2022-08-14T14:16:30.022Z,5.30
2022-08-14T14:19:09.563Z,5.07
2022-08-14T14:21:40.759Z,5.20
2022-08-14T14:24:14.865Z,5.35
2022-08-14T14:26:50.117Z,5.38
2022-08-14T14:29:25.997Z,5.10
2022-08-14T14:31:55.163Z,5.03
2022-08-14T14:34:30.794Z,5.43
2022-08-14T14:37:02.844Z,5.10
2022-08-14T14:39:35.255Z,4.80
2022-08-14T14:42:13.676Z,5.35
2022-08-14T14:44:53.123Z,5.53
2022-08-14T14:47:26.505Z,5.40
2022-08-14T14:49:57.544Z,5.22
2022-08-14T14:52:28.755Z,5.30
2022-08-14T14:54:58.775Z,5.45
2022-08-14T14:57:35.540Z,5.38
2022-08-14T15:00:08.709Z,5.20
2022-08-14T15:02:43.820Z,4.95
2022-08-14T15:05:14.404Z,5.30
2022-08-14T15:07:43.795Z,5.70
2022-08-14T15:10:27.532Z,7.10
2022-08-14T15:13:04.467Z,5.57
2022-08-14T15:15:33.622Z,5.45
2022-08-14T15:18:14.813Z,5.03
2022-08-14T15:20:56.650Z,5.18
2022-08-14T15:23:32.236Z,5.23
2022-08-14T15:28:38.829Z,5.05
2022-08-14T15:31:08.176Z,5.63
2022-08-14T15:34:01.036Z,5.35
2022-08-14T15:36:42.934Z,5.70
2022-08-14T15:39:13.116Z,5.30
2022-08-14T15:41:43.323Z,6.38
2022-08-14T15:44:25.294Z,9.20
2022-08-14T15:46:55.447Z,5.57
2022-08-14T15:49:24.315Z,7.05
2022-08-14T15:51:58.788Z,5.53
2022-08-14T15:54:31.390Z,5.78
2022-08-14T15:57:01.635Z,5.82
2022-08-14T15:59:53.971Z,5.68
2022-08-14T16:02:24.610Z,5.47
2022-08-14T16:04:56.371Z,5.13
2022-08-14T16:07:27.394Z,5.00
2022-08-14T16:10:27.685Z,4.78
2022-08-14T16:12:47.714Z,4.93
2022-08-14T16:15:17.930Z,5.20
2022-08-14T16:17:47.682Z,5.00
2022-08-14T16:20:42.118Z,5.55
2022-08-14T16:23:11.542Z,5.07
2022-08-14T16:25:40.744Z,4.85
2022-08-14T16:28:09.197Z,5.13
2022-08-14T16:30:40.680Z,5.05
2022-08-14T16:36:01.637Z,4.95
2022-08-14T16:38:46.138Z,4.78
2022-08-14T16:41:22.016Z,4.95
2022-08-14T16:43:54.101Z,5.15
2022-08-14T16:46:32.767Z,5.18
2022-08-14T16:49:02.602Z,5.30
2022-08-14T16:51:34.944Z,5.40
2022-08-14T16:54:20.652Z,4.68
2022-08-14T16:56:56.396Z,4.82
2022-08-14T16:59:30.630Z,5.25
2022-08-14T17:02:18.678Z,4.70
2022-08-14T17:04:49.100Z,4.60
2022-08-14T17:07:17.594Z,4.55
2022-08-14T17:09:48.516Z,4.65
2022-08-14T17:12:28.608Z,5.03
2022-08-14T17:15:10.798Z,5.00
2022-08-14T17:17:49.862Z,5.00
2022-08-14T17:20:54.618Z,4.93
2022-08-14T17:23:13.589Z,4.90
2022-08-14T17:25:49.476Z,4.93
2022-08-14T17:28:51.599Z,4.95
2022-08-14T17:31:12.429Z,4.80
2022-08-14T17:33:44.693Z,5.05
2022-08-14T17:36:22.872Z,4.90
2022-08-14T17:39:05.913Z,5.28
2022-08-14T17:41:38.703Z,5.10
2022-08-14T17:44:19.901Z,5.93
2022-08-14T17:46:55.342Z,5.90
2022-08-14T17:49:32.246Z,5.15
2022-08-14T17:52:07.665Z,5.10
2022-08-14T17:54:52.646Z,5.10
2022-08-14T17:57:24.455Z,5.40
2022-08-14T17:59:59.436Z,5.68
2022-08-14T18:02:31.307Z,5.75
2022-08-14T18:05:02.969Z,5.70
2022-08-14T18:08:00.032Z,5.55
2022-08-14T18:10:51.847Z,5.07
2022-08-14T18:13:10.839Z,5.65
2022-08-14T18:15:42.660Z,6.10
2022-08-14T18:18:12.940Z,6.30
2022-08-14T18:21:43.050Z,5.93
2022-08-14T18:23:35.693Z,5.50
2022-08-14T18:26:36.977Z,5.80
2022-08-14T18:29:01.422Z,6.13
2022-08-14T18:31:44.095Z,6.35
2022-08-14T18:34:31.124Z,6.10
2022-08-14T18:37:16.855Z,6.55
2022-08-14T18:40:01.591Z,6.63
2022-08-14T18:42:45.571Z,6.65
2022-08-14T18:45:18.864Z,5.70
2022-08-14T18:48:16.299Z,6.07
2022-08-14T18:50:52.732Z,6.00
2022-08-14T18:53:25.284Z,5.90
2022-08-14T18:56:09.651Z,5.97
2022-08-14T18:58:48.892Z,5.80
2022-08-14T19:01:29.555Z,6.20
2022-08-14T19:03:59.755Z,5.97
2022-08-14T19:06:40.173Z,6.30
2022-08-14T19:09:50.280Z,6.75
2022-08-14T19:13:00.335Z,6.45
2022-08-14T19:15:31.409Z,6.28
2022-08-14T19:18:14.344Z,6.20
2022-08-14T19:20:52.610Z,6.38
2022-08-14T19:23:40.632Z,6.15
2022-08-14T19:26:36.707Z,5.82
2022-08-14T19:29:36.042Z,6.07
2022-08-14T19:32:32.334Z,6.13
2022-08-14T19:35:16.938Z,6.20
2022-08-14T19:37:52.462Z,6.45
2022-08-14T19:40:34.270Z,6.63
2022-08-14T19:43:09.346Z,6.72
2022-08-14T19:45:39.250Z,6.65
2022-08-14T19:48:13.340Z,7.15
2022-08-14T19:50:46.107Z,6.60
2022-08-14T19:53:18.281Z,6.88
2022-08-14T19:55:59.365Z,6.43
2022-08-14T19:58:54.413Z,6.70
2022-08-14T20:01:37.013Z,7.53
2022-08-14T20:04:45.455Z,8.07
2022-08-14T20:07:00.212Z,7.25
2022-08-14T20:11:03.050Z,7.93
2022-08-14T20:12:34.994Z,7.60
2022-08-14T20:15:08.694Z,7.20
2022-08-14T20:17:40.651Z,7.63
2022-08-14T20:20:21.052Z,7.60
2022-08-14T20:23:11.183Z,7.13
2022-08-14T20:25:45.482Z,7.40
2022-08-14T20:28:32.085Z,7.15
2022-08-14T20:31:17.779Z,7.57
2022-08-14T20:34:24.280Z,7.60
2022-08-14T20:37:09.784Z,7.22
2022-08-14T20:39:43.603Z,7.03
2022-08-14T20:42:29.811Z,6.60
2022-08-14T20:45:20.086Z,7.00
2022-08-14T20:47:58.736Z,7.50
2022-08-14T20:50:31.893Z,7.00
2022-08-14T20:53:05.673Z,6.78
2022-08-14T20:55:41.730Z,7.32
2022-08-14T20:58:43.339Z,7.15
2022-08-14T21:01:33.648Z,7.38
2022-08-14T21:04:28.957Z,7.93
2022-08-14T21:07:24.707Z,7.63
2022-08-14T21:10:06.246Z,8.15
2022-08-14T21:13:26.350Z,7.38
2022-08-14T21:15:42.069Z,7.78
2022-08-14T21:18:13.852Z,7.97
2022-08-14T21:20:46.273Z,8.07
2022-08-14T21:23:16.037Z,7.45
2022-08-14T21:25:45.965Z,8.25
2022-08-14T21:28:29.731Z,7.60
2022-08-14T21:30:58.828Z,7.22
2022-08-14T21:33:28.864Z,7.30
2022-08-14T21:36:00.257Z,7.80
2022-08-14T21:38:37.992Z,7.38
2022-08-14T21:41:42.982Z,7.63
2022-08-14T21:44:18.086Z,9.18
2022-08-14T21:46:50.752Z,7.50
2022-08-14T21:49:23.731Z,7.65
2022-08-14T21:51:59.976Z,7.40
2022-08-14T21:54:49.784Z,8.18
2022-08-14T21:58:46.100Z,7.60
2022-08-14T22:00:31.563Z,8.18
2022-08-14T22:03:04.326Z,8.00
2022-08-14T22:05:34.186Z,8.15
2022-08-14T22:08:07.421Z,7.70
2022-08-14T22:10:38.792Z,7.25
2022-08-14T22:13:11.364Z,6.72
2022-08-14T22:15:43.930Z,7.22
2022-08-14T22:18:20.313Z,7.15
2022-08-14T22:20:53.629Z,7.00
2022-08-14T22:23:23.853Z,7.47
2022-08-14T22:25:52.732Z,7.72
2022-08-14T22:28:25.142Z,8.38
2022-08-14T22:33:26.656Z,7.65
2022-08-14T22:36:01.922Z,8.15
2022-08-14T22:38:36.160Z,7.85
2022-08-14T22:41:29.634Z,8.82
2022-08-14T22:44:00.459Z,7.68
2022-08-14T22:46:29.423Z,8.35
2022-08-14T22:48:57.735Z,8.02
2022-08-14T22:51:27.817Z,7.72
2022-08-14T22:53:59.477Z,7.85
2022-08-14T22:56:30.529Z,8.38
2022-08-14T22:59:00.879Z,8.63
2022-08-14T23:01:46.118Z,8.23
2022-08-14T23:04:35.016Z,8.40
2022-08-14T23:07:22.047Z,8.35
2022-08-14T23:10:33.067Z,7.70
2022-08-14T23:12:54.516Z,8.68
2022-08-14T23:15:29.794Z,8.35
2022-08-14T23:17:58.138Z,7.90
2022-08-14T23:20:36.261Z,7.47
2022-08-14T23:23:13.323Z,7.60
2022-08-14T23:25:59.854Z,7.57
2022-08-14T23:28:34.820Z,7.80
2022-08-14T23:31:33.498Z,7.63
2022-08-14T23:34:06.720Z,7.35
2022-08-14T23:36:38.042Z,7.22
2022-08-14T23:39:30.215Z,7.28
2022-08-14T23:42:02.368Z,7.07
2022-08-14T23:44:35.132Z,7.00
2022-08-14T23:47:10.649Z,7.82
2022-08-14T23:50:00.762Z,8.40
2022-08-14T23:53:04.057Z,7.68
2022-08-14T23:57:57.448Z,7.30
